Time;durP1;ratioP1;P1;durP2;ratioP2;P2;SDS_P1;SDS_P2;PMS_P1;PMS_P2;Temp;Humidity;BMP_temperature;BMP_pressure;BME280_temperature;BME280_humidity;BME280_pressure;Samples;Min_cycle;Max_cycle;Signal;HPM_P1;HPM_P2
2023/08/08 00:00:15;;;;;;;5.60;0.43;;;;;;;;;;5052279;28;20838;-81
2023/08/08 00:02:41;;;;;;;4.57;1.27;;;;;;;;;;5052981;28;20709;-81
2023/08/08 00:05:08;;;;;;;6.73;0.50;;;;;;;;;;5037850;28;20906;-80
2023/08/08 00:07:34;;;;;;;5.70;1.07;;;;;;;;;;5055960;28;20903;-79
2023/08/08 00:10:00;;;;;;;2.50;0.60;;;;;;;;;;5037909;28;20528;-80
2023/08/08 00:12:26;;;;;;;3.03;0.83;;;;;;;;;;5036073;28;20187;-80
2023/08/08 00:14:51;;;;;;;3.27;0.50;;;;;;;;;;5042304;28;20200;-80
2023/08/08 00:17:17;;;;;;;3.50;0.90;;;;;;;;;;5035567;28;20231;-81
2023/08/08 00:19:43;;;;;;;1.83;0.60;;;;;;;;;;5017604;28;20671;-82
2023/08/08 00:22:09;;;;;;;3.70;0.87;;;;;;;;;;5035615;28;20176;-79
2023/08/08 00:24:35;;;;;;;8.13;1.37;;;;;;;;;;5017808;28;20548;-80
2023/08/08 00:27:01;;;;;;;5.20;1.10;;;;;;;;;;5034924;28;20418;-80
2023/08/08 00:29:27;;;;;;;2.70;0.63;;;;;;;;;;5035406;28;20183;-81
2023/08/08 00:31:53;;;;;;;1.17;0.47;;;;;;;;;;5042426;28;20423;-80
2023/08/08 00:34:50;;;;;;;5.13;0.93;;;;;;;;;;5031593;28;20198;-81
2023/08/08 00:37:15;;;;;;;6.10;1.07;;;;;;;;;;5017198;28;20180;-81
2023/08/08 00:39:45;;;;;;;3.93;1.30;;;;;;;;;;5035335;28;20429;-80
2023/08/08 00:42:11;;;;;;;3.50;1.13;;;;;;;;;;5035219;28;20523;-81
2023/08/08 00:44:37;;;;;;;5.13;0.70;;;;;;;;;;5035131;28;20415;-82
2023/08/08 00:47:03;;;;;;;3.73;1.30;;;;;;;;;;5035404;28;20781;-80
2023/08/08 00:49:30;;;;;;;4.50;0.90;;;;;;;;;;5034813;28;20815;-81
2023/08/08 00:51:57;;;;;;;4.70;0.67;;;;;;;;;;5035171;28;20405;-80
2023/08/08 00:54:23;;;;;;;5.13;2.27;;;;;;;;;;5034971;28;20488;-82
2023/08/08 00:56:49;;;;;;;6.97;1.30;;;;;;;;;;5034915;28;20422;-81
2023/08/08 00:59:16;;;;;;;5.73;1.13;;;;;;;;;;5034923;28;20456;-82
2023/08/08 01:01:42;;;;;;;6.10;1.40;;;;;;;;;;5035018;28;20427;-81
2023/08/08 01:04:08;;;;;;;3.30;0.93;;;;;;;;;;5035417;28;20402;-81
2023/08/08 01:06:44;;;;;;;3.77;0.73;;;;;;;;;;5034984;28;20526;-80
2023/08/08 01:09:14;;;;;;;3.17;1.23;;;;;;;;;;5035384;28;20888;-82
2023/08/08 01:11:41;;;;;;;6.17;1.93;;;;;;;;;;5035242;28;20401;-81
2023/08/08 01:14:07;;;;;;;3.33;1.23;;;;;;;;;;5034450;28;20449;-83
2023/08/08 01:16:33;;;;;;;6.80;1.13;;;;;;;;;;5034658;28;20473;-83
2023/08/08 01:18:59;;;;;;;4.57;1.10;;;;;;;;;;5034868;28;20939;-81
2023/08/08 01:21:28;;;;;;;3.80;1.10;;;;;;;;;;5034569;28;20458;-81
2023/08/08 01:23:56;;;;;;;5.00;1.70;;;;;;;;;;5034923;28;20421;-80
2023/08/08 01:26:22;;;;;;;5.63;0.90;;;;;;;;;;5017141;28;20422;-80
2023/08/08 01:28:48;;;;;;;3.27;0.73;;;;;;;;;;5034943;28;20420;-83
2023/08/08 01:31:14;;;;;;;2.53;0.90;;;;;;;;;;5034788;28;20522;-82
2023/08/08 01:33:40;;;;;;;3.40;1.30;;;;;;;;;;5034684;28;20424;-81
2023/08/08 01:36:21;;;;;;;5.07;0.90;;;;;;;;;;5034337;28;20248;-81
2023/08/08 01:38:48;;;;;;;3.27;1.20;;;;;;;;;;5034710;28;20401;-83
2023/08/08 01:41:14;;;;;;;2.23;0.80;;;;;;;;;;5016816;28;20470;-80
2023/08/08 01:43:41;;;;;;;6.43;1.50;;;;;;;;;;5034633;28;20412;-81
2023/08/08 01:46:07;;;;;;;5.20;1.20;;;;;;;;;;5034585;28;20415;-83
2023/08/08 01:48:33;;;;;;;6.40;0.97;;;;;;;;;;5034507;28;20868;-82
2023/08/08 01:50:59;;;;;;;3.57;1.30;;;;;;;;;;5034128;28;20397;-82
2023/08/08 01:53:25;;;;;;;5.33;0.90;;;;;;;;;;5034256;28;20913;-81
2023/08/08 01:55:52;;;;;;;7.17;1.47;;;;;;;;;;5034223;28;20539;-81
2023/08/08 01:58:18;;;;;;;2.63;1.30;;;;;;;;;;5034347;28;20444;-82
2023/08/08 02:00:46;;;;;;;4.90;0.70;;;;;;;;;;5034208;28;20417;-81
2023/08/08 02:03:12;;;;;;;4.73;1.47;;;;;;;;;;5034310;28;20563;-81
2023/08/08 02:05:38;;;;;;;5.13;1.40;;;;;;;;;;5033737;28;20475;-80
2023/08/08 02:08:04;;;;;;;3.93;0.87;;;;;;;;;;5034156;28;20413;-82
2023/08/08 02:10:30;;;;;;;5.00;1.20;;;;;;;;;;5034089;28;20797;-82
2023/08/08 02:12:57;;;;;;;3.30;1.03;;;;;;;;;;5034025;28;20420;-82
2023/08/08 02:15:22;;;;;;;2.50;0.90;;;;;;;;;;5033812;28;20547;-81
2023/08/08 02:17:50;;;;;;;5.33;0.50;;;;;;;;;;5034031;28;20456;-81
2023/08/08 02:20:17;;;;;;;2.87;0.40;;;;;;;;;;5033422;28;20193;-82
2023/08/08 02:22:43;;;;;;;4.43;0.70;;;;;;;;;;5033876;28;20409;-79
2023/08/08 02:25:09;;;;;;;1.07;0.43;;;;;;;;;;5033885;28;20502;-80
2023/08/08 02:27:35;;;;;;;5.83;0.70;;;;;;;;;;5033734;28;20582;-81
2023/08/08 02:30:01;;;;;;;3.73;0.57;;;;;;;;;;5033745;28;20182;-82
2023/08/08 02:32:27;;;;;;;3.90;0.80;;;;;;;;;;5032409;28;20483;-80
2023/08/08 02:34:53;;;;;;;4.70;0.80;;;;;;;;;;5033151;28;20456;-81
2023/08/08 02:37:19;;;;;;;4.93;0.60;;;;;;;;;;5033543;28;20421;-81
2023/08/08 02:39:45;;;;;;;2.57;0.70;;;;;;;;;;5033489;28;20193;-81
2023/08/08 02:42:11;;;;;;;3.97;0.60;;;;;;;;;;5033569;28;20178;-82
2023/08/08 02:44:36;;;;;;;2.20;0.37;;;;;;;;;;5033511;28;20404;-81
2023/08/08 02:47:03;;;;;;;3.30;0.40;;;;;;;;;;5032206;28;20751;-81
2023/08/08 02:49:29;;;;;;;2.37;0.50;;;;;;;;;;5032973;28;20167;-80
2023/08/08 02:51:55;;;;;;;5.07;1.10;;;;;;;;;;5033378;28;20908;-81
2023/08/08 02:54:21;;;;;;;4.00;0.80;;;;;;;;;;5033242;28;20436;-81
2023/08/08 02:56:47;;;;;;;2.10;0.40;;;;;;;;;;5033279;28;20417;-80
2023/08/08 02:59:13;;;;;;;1.50;0.70;;;;;;;;;;5033285;28;20750;-81
2023/08/08 03:01:39;;;;;;;3.20;0.50;;;;;;;;;;5033184;28;20441;-81
2023/08/08 03:04:05;;;;;;;2.67;0.30;;;;;;;;;;5032804;28;20172;-81
2023/08/08 03:06:31;;;;;;;3.60;0.43;;;;;;;;;;5033122;28;20459;-81
2023/08/08 03:08:57;;;;;;;3.20;0.60;;;;;;;;;;5033147;28;20460;-81
2023/08/08 03:11:23;;;;;;;2.97;1.03;;;;;;;;;;5032982;28;20413;-82
2023/08/08 03:13:49;;;;;;;3.87;0.80;;;;;;;;;;5032477;28;20208;-82
2023/08/08 03:16:15;;;;;;;1.57;0.30;;;;;;;;;;5032819;28;20965;-80
2023/08/08 03:18:41;;;;;;;2.13;0.60;;;;;;;;;;5032949;28;20812;-82
2023/08/08 03:21:07;;;;;;;3.13;0.30;;;;;;;;;;5014879;28;20507;-81
2023/08/08 03:23:33;;;;;;;2.60;0.60;;;;;;;;;;5015270;28;20460;-80
2023/08/08 03:25:59;;;;;;;3.80;0.73;;;;;;;;;;5032931;28;20425;-80
2023/08/08 03:28:25;;;;;;;3.57;1.20;;;;;;;;;;5032907;28;20421;-81
2023/08/08 03:30:51;;;;;;;4.63;0.60;;;;;;;;;;5032896;28;20177;-83
2023/08/08 03:33:16;;;;;;;3.07;0.50;;;;;;;;;;5032804;28;20547;-81
2023/08/08 03:35:43;;;;;;;1.70;0.27;;;;;;;;;;5032359;28;20213;-80
2023/08/08 03:38:09;;;;;;;5.00;1.67;;;;;;;;;;5034367;28;20166;-82
2023/08/08 03:40:35;;;;;;;2.17;0.60;;;;;;;;;;5036908;28;20414;-80
2023/08/08 03:43:01;;;;;;;2.03;0.73;;;;;;;;;;5019028;28;20726;-82
2023/08/08 03:45:27;;;;;;;5.40;0.53;;;;;;;;;;5036746;28;20485;-81
2023/08/08 03:47:53;;;;;;;3.07;0.83;;;;;;;;;;5036721;28;20447;-81
2023/08/08 03:50:19;;;;;;;2.13;0.60;;;;;;;;;;5036412;28;20412;-81
2023/08/08 03:52:45;;;;;;;2.00;0.63;;;;;;;;;;5036742;28;20623;-81
2023/08/08 03:55:11;;;;;;;2.20;0.43;;;;;;;;;;5036625;28;20844;-81
2023/08/08 03:57:37;;;;;;;4.00;0.53;;;;;;;;;;5036526;28;20768;-82
2023/08/08 04:00:04;;;;;;;4.30;0.60;;;;;;;;;;5036594;28;20439;-81
2023/08/08 04:02:29;;;;;;;2.40;0.47;;;;;;;;;;5036403;28;20590;-82
2023/08/08 04:04:55;;;;;;;7.90;1.23;;;;;;;;;;5036090;28;20512;-81
2023/08/08 04:07:21;;;;;;;1.77;0.20;;;;;;;;;;5018665;28;20179;-81
2023/08/08 04:09:47;;;;;;;4.67;0.70;;;;;;;;;;5036444;28;20184;-82
2023/08/08 04:12:13;;;;;;;4.63;0.80;;;;;;;;;;5036360;28;20409;-83
2023/08/08 04:14:39;;;;;;;2.63;0.30;;;;;;;;;;5036088;28;20368;-83
2023/08/08 04:17:05;;;;;;;2.50;0.63;;;;;;;;;;5036042;28;20537;-83
2023/08/08 04:19:31;;;;;;;3.10;0.60;;;;;;;;;;5035787;28;20189;-82
2023/08/08 04:21:57;;;;;;;3.00;0.70;;;;;;;;;;5036102;28;20771;-82
2023/08/08 04:24:23;;;;;;;2.30;0.33;;;;;;;;;;5036063;28;20406;-81
2023/08/08 04:26:49;;;;;;;4.13;0.57;;;;;;;;;;5036080;28;20174;-82
2023/08/08 04:29:14;;;;;;;4.33;0.70;;;;;;;;;;5036031;28;20172;-80
2023/08/08 04:31:40;;;;;;;5.00;0.80;;;;;;;;;;5018195;28;20186;-80
2023/08/08 04:34:06;;;;;;;1.43;0.50;;;;;;;;;;5017720;28;20415;-83
2023/08/08 04:36:33;;;;;;;2.80;0.90;;;;;;;;;;5018110;28;20217;-80
2023/08/08 04:38:58;;;;;;;3.50;0.70;;;;;;;;;;5035924;28;20175;-82
2023/08/08 04:41:24;;;;;;;2.80;0.90;;;;;;;;;;5035817;28;20889;-82
2023/08/08 04:43:50;;;;;;;2.87;0.50;;;;;;;;;;5035651;28;20183;-81
2023/08/08 04:46:16;;;;;;;2.13;0.53;;;;;;;;;;5035595;28;20506;-81
2023/08/08 04:48:42;;;;;;;3.10;0.83;;;;;;;;;;5034909;28;20424;-82
2023/08/08 04:51:09;;;;;;;3.10;0.87;;;;;;;;;;5034833;28;20420;-82
2023/08/08 04:53:34;;;;;;;1.23;0.60;;;;;;;;;;5017863;28;20224;-82
2023/08/08 04:56:00;;;;;;;1.37;0.40;;;;;;;;;;5017756;28;20511;-81
2023/08/08 04:58:26;;;;;;;4.23;0.70;;;;;;;;;;5035458;28;20493;-82
2023/08/08 05:00:52;;;;;;;2.27;0.30;;;;;;;;;;5035370;28;20425;-81
2023/08/08 05:03:18;;;;;;;2.00;0.53;;;;;;;;;;5035562;28;20174;-82
2023/08/08 05:05:44;;;;;;;1.80;0.40;;;;;;;;;;5034872;28;20512;-81
2023/08/08 05:08:10;;;;;;;2.33;0.40;;;;;;;;;;5035267;28;20432;-82
2023/08/08 05:10:36;;;;;;;2.40;0.50;;;;;;;;;;5035224;28;20417;-82
2023/08/08 05:13:02;;;;;;;2.13;0.50;;;;;;;;;;5017466;28;20402;-81
2023/08/08 05:15:28;;;;;;;1.47;0.90;;;;;;;;;;5034926;28;20822;-82
2023/08/08 05:17:55;;;;;;;3.80;0.70;;;;;;;;;;5035148;28;20473;-84
2023/08/08 05:20:21;;;;;;;1.70;0.23;;;;;;;;;;5037591;28;20249;-80
2023/08/08 05:22:47;;;;;;;2.30;0.87;;;;;;;;;;5035051;28;20413;-81
2023/08/08 05:25:13;;;;;;;2.40;0.50;;;;;;;;;;5035050;28;20421;-81
2023/08/08 05:27:38;;;;;;;2.50;0.30;;;;;;;;;;5035034;28;20209;-80
2023/08/08 05:30:05;;;;;;;5.90;0.40;;;;;;;;;;5034760;28;20903;-81
2023/08/08 05:32:31;;;;;;;4.73;0.53;;;;;;;;;;5034855;28;20416;-82
2023/08/08 05:34:57;;;;;;;1.80;0.20;;;;;;;;;;5034258;28;20505;-81
2023/08/08 05:37:23;;;;;;;2.80;0.30;;;;;;;;;;5034785;28;20419;-80
2023/08/08 05:39:49;;;;;;;3.17;1.20;;;;;;;;;;5034745;28;20733;-81
2023/08/08 05:42:15;;;;;;;2.53;0.50;;;;;;;;;;5034608;28;20408;-82
2023/08/08 05:44:44;;;;;;;2.60;0.43;;;;;;;;;;5034536;28;20421;-80
2023/08/08 05:47:10;;;;;;;2.47;0.57;;;;;;;;;;5034506;28;20410;-81
2023/08/08 05:49:36;;;;;;;5.67;0.47;;;;;;;;;;5034181;28;20420;-81
2023/08/08 05:52:02;;;;;;;1.30;0.23;;;;;;;;;;5034447;28;20413;-80
2023/08/08 05:54:28;;;;;;;1.80;0.20;;;;;;;;;;5034337;28;20233;-80
2023/08/08 05:56:54;;;;;;;1.93;0.27;;;;;;;;;;5034371;28;20542;-82
2023/08/08 05:59:19;;;;;;;3.23;0.40;;;;;;;;;;5034232;28;20495;-82
2023/08/08 06:01:46;;;;;;;0.80;0.27;;;;;;;;;;5033923;28;20909;-81
2023/08/08 06:04:12;;;;;;;2.23;0.73;;;;;;;;;;5034024;28;20189;-81
2023/08/08 06:06:38;;;;;;;1.87;1.00;;;;;;;;;;5034209;28;20434;-80
2023/08/08 06:09:03;;;;;;;0.90;0.30;;;;;;;;;;5034200;28;20403;-81
2023/08/08 06:11:29;;;;;;;3.77;0.50;;;;;;;;;;5016426;28;20420;-80
2023/08/08 06:13:55;;;;;;;1.07;0.83;;;;;;;;;;5033974;28;20186;-81
2023/08/08 06:16:22;;;;;;;1.50;0.33;;;;;;;;;;5033704;28;20959;-81
2023/08/08 06:18:48;;;;;;;4.67;0.40;;;;;;;;;;5033651;28;20788;-82
2023/08/08 06:21:13;;;;;;;1.37;0.57;;;;;;;;;;5033972;28;20415;-82
2023/08/08 06:23:39;;;;;;;2.27;0.60;;;;;;;;;;5033980;28;20182;-81
2023/08/08 06:26:06;;;;;;;2.67;0.50;;;;;;;;;;5033857;28;20412;-82
2023/08/08 06:28:32;;;;;;;2.70;0.33;;;;;;;;;;5033695;28;20516;-83
2023/08/08 06:31:02;;;;;;;3.00;0.50;;;;;;;;;;5033689;28;20424;-81
2023/08/08 06:33:28;;;;;;;2.97;0.97;;;;;;;;;;5033357;28;20407;-80
2023/08/08 06:35:55;;;;;;;1.80;0.40;;;;;;;;;;5033592;28;20829;-82
2023/08/08 06:38:21;;;;;;;1.73;0.33;;;;;;;;;;5033559;28;20809;-79
2023/08/08 06:40:46;;;;;;;3.40;1.00;;;;;;;;;;5033457;28;20513;-81
2023/08/08 06:43:13;;;;;;;1.50;0.40;;;;;;;;;;5033479;28;20260;-81
2023/08/08 06:45:39;;;;;;;3.40;0.70;;;;;;;;;;5033506;28;20183;-81
2023/08/08 06:48:05;;;;;;;0.60;0.20;;;;;;;;;;5033427;28;20468;-78
2023/08/08 06:50:31;;;;;;;3.10;0.37;;;;;;;;;;5015300;28;20471;-80
2023/08/08 06:52:57;;;;;;;1.43;0.30;;;;;;;;;;5015710;28;20449;-82
2023/08/08 06:55:24;;;;;;;1.73;0.50;;;;;;;;;;5015526;28;20527;-81
2023/08/08 06:57:50;;;;;;;1.90;0.93;;;;;;;;;;5033296;28;20654;-79
2023/08/08 07:00:16;;;;;;;3.93;0.20;;;;;;;;;;5033317;28;20421;-79
2023/08/08 07:02:42;;;;;;;3.57;0.60;;;;;;;;;;5033151;28;20226;-78
2023/08/08 07:05:09;;;;;;;4.00;0.60;;;;;;;;;;5032828;28;20917;-79
2023/08/08 07:07:35;;;;;;;1.73;0.37;;;;;;;;;;5033088;28;20501;-81
2023/08/08 07:10:02;;;;;;;2.43;0.40;;;;;;;;;;5033049;28;20426;-80
2023/08/08 07:12:28;;;;;;;1.67;0.27;;;;;;;;;;5032418;28;20403;-81
2023/08/08 07:14:54;;;;;;;3.50;0.33;;;;;;;;;;5032932;28;20458;-82
2023/08/08 07:17:20;;;;;;;2.20;0.40;;;;;;;;;;5032868;28;21049;-79
2023/08/08 07:19:46;;;;;;;3.20;0.60;;;;;;;;;;5032567;28;20421;-79
2023/08/08 07:22:12;;;;;;;2.43;0.60;;;;;;;;;;5033091;28;20177;-81
2023/08/08 07:24:38;;;;;;;3.87;0.73;;;;;;;;;;5032862;28;20180;-82
2023/08/08 07:27:07;;;;;;;2.90;0.20;;;;;;;;;;5033049;28;20180;-82
2023/08/08 07:29:33;;;;;;;2.60;0.30;;;;;;;;;;5032893;28;20517;-81
2023/08/08 07:32:03;;;;;;;3.80;0.50;;;;;;;;;;5032605;28;20408;-81
2023/08/08 07:34:29;;;;;;;2.30;0.60;;;;;;;;;;5014500;28;20220;-83
2023/08/08 07:36:55;;;;;;;5.50;0.60;;;;;;;;;;5032411;28;20912;-81
2023/08/08 07:39:22;;;;;;;3.33;0.30;;;;;;;;;;5032806;28;20263;-83
2023/08/08 07:41:48;;;;;;;1.67;0.20;;;;;;;;;;5032633;28;20416;-81
2023/08/08 07:44:14;;;;;;;1.67;0.20;;;;;;;;;;5014388;28;20438;-81
2023/08/08 07:46:40;;;;;;;1.30;0.60;;;;;;;;;;5019517;28;20187;-82
2023/08/08 07:49:06;;;;;;;1.37;0.20;;;;;;;;;;5031895;28;20211;-83
2023/08/08 07:51:32;;;;;;;1.33;0.33;;;;;;;;;;5032146;28;20478;-80
2023/08/08 07:54:00;;;;;;;3.17;0.43;;;;;;;;;;5014519;28;20819;-81
2023/08/08 07:56:29;;;;;;;4.43;0.90;;;;;;;;;;5032243;28;20829;-82
2023/08/08 07:58:55;;;;;;;3.63;0.40;;;;;;;;;;5032309;28;20508;-82
2023/08/08 08:01:27;;;;;;;3.80;1.03;;;;;;;;;;5032216;28;20403;-80
2023/08/08 08:03:53;;;;;;;2.60;0.50;;;;;;;;;;5031712;28;20777;-82
2023/08/08 08:06:18;;;;;;;2.67;0.40;;;;;;;;;;5014438;28;20429;-80
2023/08/08 08:08:44;;;;;;;2.40;0.50;;;;;;;;;;5032195;28;20178;-82
2023/08/08 08:11:12;;;;;;;3.70;0.50;;;;;;;;;;5032295;28;20186;-80
2023/08/08 08:13:37;;;;;;;13.27;0.77;;;;;;;;;;5032191;28;20198;-81
2023/08/08 08:16:03;;;;;;;1.70;0.47;;;;;;;;;;5031748;28;20492;-80
2023/08/08 08:18:29;;;;;;;3.90;1.20;;;;;;;;;;5031593;28;20172;-80
2023/08/08 08:20:55;;;;;;;5.23;0.40;;;;;;;;;;5014430;28;20435;-82
2023/08/08 08:23:21;;;;;;;4.30;0.50;;;;;;;;;;5014670;28;20184;-82
2023/08/08 08:25:48;;;;;;;3.53;1.13;;;;;;;;;;5035467;28;20431;-81
2023/08/08 08:28:14;;;;;;;2.70;0.60;;;;;;;;;;5027201;28;20601;-81
2023/08/08 08:30:40;;;;;;;4.83;0.60;;;;;;;;;;5035829;28;20448;-82
2023/08/08 08:33:07;;;;;;;4.33;0.60;;;;;;;;;;5017545;28;20269;-80
2023/08/08 08:35:33;;;;;;;1.63;0.50;;;;;;;;;;5035853;28;20731;-82
2023/08/08 08:37:59;;;;;;;3.30;0.53;;;;;;;;;;5035077;28;20423;-80
2023/08/08 08:40:25;;;;;;;2.63;0.27;;;;;;;;;;5093723;22;20580;-78
2023/08/08 08:42:51;;;;;;;1.50;0.20;;;;;;;;;;5014719;28;20525;-79
2023/08/08 08:45:20;;;;;;;2.43;0.40;;;;;;;;;;5015888;28;20415;-80
2023/08/08 08:47:47;;;;;;;2.67;0.77;;;;;;;;;;5015840;28;20426;-79
2023/08/08 08:50:14;;;;;;;2.30;0.30;;;;;;;;;;5012687;28;20425;-78
2023/08/08 08:52:40;;;;;;;3.33;0.50;;;;;;;;;;5008877;28;20528;-80
2023/08/08 08:55:06;;;;;;;0.80;0.20;;;;;;;;;;5006448;28;20958;-79
2023/08/08 08:57:32;;;;;;;1.00;0.40;;;;;;;;;;5004596;28;20491;-79
2023/08/08 08:59:58;;;;;;;1.03;0.30;;;;;;;;;;5004417;28;20497;-78
2023/08/08 09:02:24;;;;;;;1.50;0.33;;;;;;;;;;5005794;28;20435;-79
2023/08/08 09:04:51;;;;;;;2.70;0.30;;;;;;;;;;5003535;28;20793;-78
2023/08/08 09:07:20;;;;;;;1.40;0.30;;;;;;;;;;5011332;28;20431;-79
2023/08/08 09:09:46;;;;;;;4.53;0.30;;;;;;;;;;5004821;28;20414;-78
2023/08/08 09:12:15;;;;;;;2.30;0.20;;;;;;;;;;5004828;28;20810;-80
2023/08/08 09:14:42;;;;;;;1.43;0.63;;;;;;;;;;5006030;28;20869;-79
2023/08/08 09:17:15;;;;;;;1.60;0.30;;;;;;;;;;5004595;28;20421;-80
2023/08/08 09:19:44;;;;;;;1.70;0.30;;;;;;;;;;5003642;28;20404;-79
2023/08/08 09:22:10;;;;;;;1.20;0.30;;;;;;;;;;5003431;28;20546;-80
2023/08/08 09:24:40;;;;;;;1.80;0.30;;;;;;;;;;5004166;28;20429;-78
2023/08/08 09:27:07;;;;;;;2.00;0.30;;;;;;;;;;4998247;28;20427;-80
2023/08/08 09:29:34;;;;;;;1.60;0.30;;;;;;;;;;4992663;28;20430;-80
2023/08/08 09:32:02;;;;;;;2.20;0.47;;;;;;;;;;4994470;28;20407;-79
2023/08/08 09:34:29;;;;;;;3.83;0.30;;;;;;;;;;4995102;28;20455;-79
2023/08/08 09:36:55;;;;;;;2.50;0.30;;;;;;;;;;4993822;28;20514;-80
2023/08/08 09:39:21;;;;;;;1.50;0.27;;;;;;;;;;4995180;28;20501;-80
2023/08/08 09:41:47;;;;;;;1.43;0.50;;;;;;;;;;4995162;28;20470;-79
2023/08/08 09:44:13;;;;;;;1.20;0.27;;;;;;;;;;4995271;28;20414;-78
2023/08/08 09:46:40;;;;;;;2.60;0.20;;;;;;;;;;4995307;28;20509;-80
2023/08/08 09:49:06;;;;;;;1.90;0.27;;;;;;;;;;4994879;28;20418;-80
2023/08/08 09:51:34;;;;;;;1.20;0.20;;;;;;;;;;4995235;28;20418;-78
2023/08/08 09:54:00;;;;;;;2.50;0.30;;;;;;;;;;4995098;28;20415;-80
2023/08/08 09:56:26;;;;;;;3.73;0.20;;;;;;;;;;4994977;28;20493;-78
2023/08/08 09:58:53;;;;;;;1.73;0.17;;;;;;;;;;5010125;28;20638;-80
2023/08/08 10:01:22;;;;;;;1.07;0.30;;;;;;;;;;4994980;28;20415;-81
2023/08/08 10:03:49;;;;;;;2.37;0.77;;;;;;;;;;4994573;28;20418;-80
2023/08/08 10:06:15;;;;;;;1.80;0.20;;;;;;;;;;4994922;28;20761;-80
2023/08/08 10:08:42;;;;;;;1.53;0.20;;;;;;;;;;4994855;28;20416;-79
2023/08/08 10:11:10;;;;;;;1.53;0.20;;;;;;;;;;4994840;28;20472;-80
2023/08/08 10:13:36;;;;;;;2.30;0.20;;;;;;;;;;4994705;28;20904;-79
2023/08/08 10:16:08;;;;;;;3.80;0.40;;;;;;;;;;4994599;28;20562;-78
2023/08/08 10:18:35;;;;;;;2.83;0.77;;;;;;;;;;4994348;28;20410;-79
2023/08/08 10:21:00;;;;;;;1.57;0.30;;;;;;;;;;4994590;28;20417;-78
2023/08/08 10:23:27;;;;;;;1.73;0.20;;;;;;;;;;5009659;28;20469;-81
2023/08/08 10:25:53;;;;;;;1.73;0.20;;;;;;;;;;4994464;28;20215;-83
2023/08/08 10:28:21;;;;;;;2.30;0.40;;;;;;;;;;4994494;28;20415;-80
2023/08/08 10:30:48;;;;;;;3.07;0.27;;;;;;;;;;4994469;28;20813;-80
2023/08/08 10:33:20;;;;;;;2.40;0.37;;;;;;;;;;4994097;28;20409;-82
2023/08/08 10:36:06;;;;;;;1.70;0.30;;;;;;;;;;4994413;28;20473;-81
2023/08/08 10:38:46;;;;;;;1.27;0.30;;;;;;;;;;4994247;28;20408;-80
2023/08/08 10:41:16;;;;;;;2.20;0.40;;;;;;;;;;4994116;28;20508;-82
2023/08/08 10:43:52;;;;;;;4.53;0.37;;;;;;;;;;4994214;28;20402;-84
2023/08/08 10:46:25;;;;;;;3.13;0.43;;;;;;;;;;4994177;28;20410;-81
2023/08/08 10:48:52;;;;;;;1.13;0.20;;;;;;;;;;4993050;28;20451;-81
2023/08/08 10:51:18;;;;;;;4.43;0.60;;;;;;;;;;4994062;28;20420;-81
2023/08/08 10:53:44;;;;;;;3.10;0.60;;;;;;;;;;4994064;28;20407;-79
2023/08/08 10:56:12;;;;;;;3.20;0.20;;;;;;;;;;5009049;28;20620;-78
2023/08/08 10:58:39;;;;;;;1.70;0.40;;;;;;;;;;5009065;28;20491;-80
2023/08/08 11:01:07;;;;;;;2.07;0.60;;;;;;;;;;4993909;28;20421;-80
2023/08/08 11:03:34;;;;;;;1.80;0.20;;;;;;;;;;5008710;28;20417;-80
2023/08/08 11:06:00;;;;;;;1.17;0.30;;;;;;;;;;4993823;28;20417;-79
2023/08/08 11:08:27;;;;;;;1.43;0.30;;;;;;;;;;4993806;28;20416;-80
2023/08/08 11:10:53;;;;;;;3.53;0.20;;;;;;;;;;4993721;28;20918;-80
2023/08/08 11:13:20;;;;;;;1.43;0.40;;;;;;;;;;5008929;28;20435;-79
2023/08/08 11:15:46;;;;;;;3.50;0.40;;;;;;;;;;4993557;28;20727;-80
2023/08/08 11:18:12;;;;;;;2.00;0.30;;;;;;;;;;4993356;28;20509;-80
2023/08/08 11:20:39;;;;;;;1.20;0.20;;;;;;;;;;4993742;28;20270;-80
2023/08/08 11:23:10;;;;;;;1.50;0.30;;;;;;;;;;4993635;28;20482;-80
2023/08/08 11:25:36;;;;;;;2.60;0.20;;;;;;;;;;4993744;28;20420;-78
2023/08/08 11:28:02;;;;;;;1.60;0.20;;;;;;;;;;4993589;28;20406;-82
2023/08/08 11:30:32;;;;;;;1.17;0.20;;;;;;;;;;4993582;28;20488;-82
2023/08/08 11:32:58;;;;;;;2.00;0.23;;;;;;;;;;5008267;28;20413;-83
2023/08/08 11:35:25;;;;;;;1.83;0.30;;;;;;;;;;4993491;28;20506;-82
2023/08/08 11:37:52;;;;;;;1.73;0.40;;;;;;;;;;4993557;28;20481;-82
2023/08/08 11:40:19;;;;;;;1.03;0.20;;;;;;;;;;4993227;28;20484;-79
2023/08/08 11:42:45;;;;;;;3.60;0.50;;;;;;;;;;4993529;28;20418;-81
2023/08/08 11:45:12;;;;;;;2.33;0.30;;;;;;;;;;4993408;28;20413;-82
2023/08/08 11:47:39;;;;;;;1.27;0.23;;;;;;;;;;4993134;28;20460;-82
2023/08/08 11:50:06;;;;;;;1.97;0.20;;;;;;;;;;4993475;28;20406;-81
2023/08/08 11:52:32;;;;;;;3.80;0.20;;;;;;;;;;4993485;28;20980;-79
2023/08/08 11:55:02;;;;;;;1.20;0.20;;;;;;;;;;4993313;28;20502;-82
2023/08/08 11:57:28;;;;;;;1.37;0.20;;;;;;;;;;4993258;28;20930;-82
2023/08/08 11:59:54;;;;;;;1.70;0.40;;;;;;;;;;4996061;28;20921;-82
2023/08/08 12:02:20;;;;;;;1.43;0.20;;;;;;;;;;4997196;28;20424;-81
2023/08/08 12:04:46;;;;;;;2.07;0.40;;;;;;;;;;4997051;28;20774;-81
2023/08/08 12:07:13;;;;;;;1.83;0.27;;;;;;;;;;4997096;28;20415;-82
2023/08/08 12:09:40;;;;;;;0.60;0.20;;;;;;;;;;4997076;28;20451;-82
2023/08/08 12:12:06;;;;;;;3.00;1.60;;;;;;;;;;4997028;28;20407;-82
2023/08/08 12:14:39;;;;;;;1.97;0.20;;;;;;;;;;4996823;28;20918;-79
2023/08/08 12:17:05;;;;;;;1.40;0.30;;;;;;;;;;4996881;28;20422;-79
2023/08/08 12:19:31;;;;;;;2.93;0.93;;;;;;;;;;4996556;28;20797;-80
2023/08/08 12:21:57;;;;;;;1.40;0.20;;;;;;;;;;4996732;28;20415;-78
2023/08/08 12:24:23;;;;;;;3.50;0.20;;;;;;;;;;4996762;28;20190;-80
2023/08/08 12:26:49;;;;;;;2.87;0.40;;;;;;;;;;4996681;28;20421;-79
2023/08/08 12:29:14;;;;;;;2.33;0.50;;;;;;;;;;4996737;28;20433;-79
2023/08/08 12:31:41;;;;;;;2.07;0.30;;;;;;;;;;4996701;28;20189;-80
2023/08/08 12:34:13;;;;;;;2.00;0.30;;;;;;;;;;4996477;28;20179;-78
2023/08/08 12:36:40;;;;;;;1.00;0.20;;;;;;;;;;4996510;28;20521;-79
2023/08/08 12:39:06;;;;;;;1.17;0.20;;;;;;;;;;4996648;28;20414;-79
2023/08/08 12:41:31;;;;;;;1.00;0.23;;;;;;;;;;4996288;28;20470;-80
2023/08/08 12:43:57;;;;;;;2.40;0.20;;;;;;;;;;4996507;28;20914;-79
2023/08/08 12:46:24;;;;;;;0.50;0.20;;;;;;;;;;4996418;28;20262;-79
2023/08/08 12:48:49;;;;;;;3.73;0.83;;;;;;;;;;4995972;28;20534;-80
2023/08/08 12:51:16;;;;;;;1.80;0.20;;;;;;;;;;5011347;28;20423;-78
2023/08/08 12:53:42;;;;;;;2.00;0.37;;;;;;;;;;4996321;28;20621;-79
2023/08/08 12:56:08;;;;;;;1.67;0.53;;;;;;;;;;4996134;28;20506;-80
2023/08/08 12:58:34;;;;;;;1.07;0.27;;;;;;;;;;4996072;28;20171;-79
2023/08/08 13:01:00;;;;;;;3.10;1.27;;;;;;;;;;4996163;28;20175;-82
2023/08/08 13:03:26;;;;;;;5.40;0.30;;;;;;;;;;4995608;28;20167;-80
2023/08/08 13:05:52;;;;;;;3.07;0.73;;;;;;;;;;4995960;28;20171;-81
2023/08/08 13:08:19;;;;;;;1.90;0.30;;;;;;;;;;4995884;28;20171;-80
2023/08/08 13:10:45;;;;;;;3.00;0.70;;;;;;;;;;4994927;28;20172;-80
2023/08/08 13:13:11;;;;;;;2.60;0.30;;;;;;;;;;4995903;28;20403;-81
2023/08/08 13:15:37;;;;;;;1.80;0.27;;;;;;;;;;4995735;28;20238;-83
2023/08/08 13:18:03;;;;;;;2.50;0.40;;;;;;;;;;4995429;28;20414;-81
2023/08/08 13:20:29;;;;;;;3.20;0.73;;;;;;;;;;4995693;28;20918;-83
2023/08/08 13:22:55;;;;;;;1.30;0.30;;;;;;;;;;4995721;28;20415;-83
2023/08/08 13:25:21;;;;;;;6.23;0.67;;;;;;;;;;5010720;28;20572;-82
2023/08/08 13:27:47;;;;;;;3.63;0.63;;;;;;;;;;4995605;28;20176;-80
2023/08/08 13:30:15;;;;;;;11.23;1.77;;;;;;;;;;4995649;28;20443;-80
2023/08/08 13:32:41;;;;;;;2.87;0.50;;;;;;;;;;4995254;28;20421;-80
2023/08/08 13:35:07;;;;;;;3.03;0.50;;;;;;;;;;4995395;28;20797;-81
2023/08/08 13:37:33;;;;;;;2.57;0.77;;;;;;;;;;4995480;28;20413;-80
2023/08/08 13:39:59;;;;;;;6.77;0.70;;;;;;;;;;4995216;28;20444;-81
2023/08/08 13:42:25;;;;;;;4.23;0.77;;;;;;;;;;4995419;28;20626;-79
2023/08/08 13:44:51;;;;;;;2.93;0.47;;;;;;;;;;4995323;28;20177;-80
2023/08/08 13:47:17;;;;;;;3.50;0.40;;;;;;;;;;4994851;28;20172;-81
2023/08/08 13:49:43;;;;;;;4.10;0.33;;;;;;;;;;4995165;28;20175;-83
2023/08/08 13:52:09;;;;;;;5.90;0.60;;;;;;;;;;4995178;28;20532;-81
2023/08/08 13:54:36;;;;;;;3.50;0.73;;;;;;;;;;4994998;28;20183;-80
2023/08/08 13:57:01;;;;;;;4.73;0.90;;;;;;;;;;4995096;28;20637;-80
2023/08/08 13:59:27;;;;;;;2.93;0.40;;;;;;;;;;4994984;28;20447;-81
2023/08/08 14:01:53;;;;;;;4.80;0.80;;;;;;;;;;4994922;28;20422;-82
2023/08/08 14:04:19;;;;;;;4.50;0.67;;;;;;;;;;4994513;28;20500;-81
2023/08/08 14:06:45;;;;;;;2.70;0.43;;;;;;;;;;4994890;28;20418;-81
2023/08/08 14:09:11;;;;;;;4.73;0.50;;;;;;;;;;4994859;28;20225;-83
2023/08/08 14:11:37;;;;;;;3.23;0.80;;;;;;;;;;4994819;28;20199;-80
2023/08/08 14:14:03;;;;;;;6.70;1.00;;;;;;;;;;4994652;28;20899;-80
2023/08/08 14:16:29;;;;;;;4.83;1.30;;;;;;;;;;4994611;28;20477;-80
2023/08/08 14:18:55;;;;;;;4.90;1.23;;;;;;;;;;4994330;28;20990;-82
2023/08/08 14:21:21;;;;;;;3.77;1.07;;;;;;;;;;4994431;28;20189;-83
2023/08/08 14:23:47;;;;;;;3.47;0.53;;;;;;;;;;4994607;28;20183;-84
2023/08/08 14:26:13;;;;;;;3.90;0.73;;;;;;;;;;4994571;28;20187;-82
2023/08/08 14:28:39;;;;;;;3.60;0.40;;;;;;;;;;4994538;28;20492;-82
2023/08/08 14:31:06;;;;;;;2.30;0.60;;;;;;;;;;5009613;28;20934;-81
2023/08/08 14:33:31;;;;;;;7.17;0.63;;;;;;;;;;5009149;28;20182;-82
2023/08/08 14:35:57;;;;;;;2.70;0.30;;;;;;;;;;4994305;28;20478;-82
2023/08/08 14:38:24;;;;;;;6.10;0.70;;;;;;;;;;4994380;28;20419;-83